sensor_id;sensor_type;location;lat;lon;timestamp;P1;durP1;ratioP1;P2;durP2;ratioP2
16579;SDS011;8402;51.466;6.806;2022-12-07T00:01:17;14.93;;;8.40;;
16579;SDS011;8402;51.466;6.806;2022-12-07T00:03:47;19.40;;;9.13;;
16579;SDS011;8402;51.466;6.806;2022-12-07T00:06:17;19.67;;;9.23;;
16579;SDS011;8402;51.466;6.806;2022-12-07T00:08:46;18.20;;;9.30;;
16579;SDS011;8402;51.466;6.806;2022-12-07T00:11:17;14.70;;;6.97;;
16579;SDS011;8402;51.466;6.806;2022-12-07T00:13:46;12.10;;;7.13;;
16579;SDS011;8402;51.466;6.806;2022-12-07T00:16:18;15.47;;;8.33;;
16579;SDS011;8402;51.466;6.806;2022-12-07T00:18:48;14.43;;;8.50;;
16579;SDS011;8402;51.466;6.806;2022-12-07T00:21:17;16.40;;;8.83;;
16579;SDS011;8402;51.466;6.806;2022-12-07T00:23:47;19.93;;;9.43;;
16579;SDS011;8402;51.466;6.806;2022-12-07T00:26:18;16.73;;;9.33;;
16579;SDS011;8402;51.466;6.806;2022-12-07T00:28:47;18.67;;;9.33;;
16579;SDS011;8402;51.466;6.806;2022-12-07T00:31:16;18.23;;;9.10;;
16579;SDS011;8402;51.466;6.806;2022-12-07T00:33:46;17.50;;;9.57;;
16579;SDS011;8402;51.466;6.806;2022-12-07T00:36:15;16.87;;;8.73;;
16579;SDS011;8402;51.466;6.806;2022-12-07T00:38:52;17.30;;;8.67;;
16579;SDS011;8402;51.466;6.806;2022-12-07T00:41:22;21.97;;;10.60;;
16579;SDS011;8402;51.466;6.806;2022-12-07T00:43:51;21.70;;;11.10;;
16579;SDS011;8402;51.466;6.806;2022-12-07T00:46:20;23.30;;;10.70;;
16579;SDS011;8402;51.466;6.806;2022-12-07T00:48:49;23.07;;;11.07;;
16579;SDS011;8402;51.466;6.806;2022-12-07T00:51:18;22.43;;;11.23;;
16579;SDS011;8402;51.466;6.806;2022-12-07T00:53:48;20.53;;;11.30;;
16579;SDS011;8402;51.466;6.806;2022-12-07T00:56:17;18.20;;;9.87;;
16579;SDS011;8402;51.466;6.806;2022-12-07T00:58:50;18.13;;;10.43;;
16579;SDS011;8402;51.466;6.806;2022-12-07T01:01:19;19.40;;;9.20;;
16579;SDS011;8402;51.466;6.806;2022-12-07T01:03:47;19.30;;;10.50;;
16579;SDS011;8402;51.466;6.806;2022-12-07T01:06:16;19.03;;;10.13;;
16579;SDS011;8402;51.466;6.806;2022-12-07T01:08:44;19.53;;;10.30;;
16579;SDS011;8402;51.466;6.806;2022-12-07T01:11:13;18.33;;;9.87;;
16579;SDS011;8402;51.466;6.806;2022-12-07T01:13:43;20.83;;;10.30;;
16579;SDS011;8402;51.466;6.806;2022-12-07T01:16:14;20.03;;;11.00;;
16579;SDS011;8402;51.466;6.806;2022-12-07T01:18:45;20.27;;;10.97;;
16579;SDS011;8402;51.466;6.806;2022-12-07T01:21:15;20.67;;;10.63;;
16579;SDS011;8402;51.466;6.806;2022-12-07T01:23:44;21.87;;;10.60;;
16579;SDS011;8402;51.466;6.806;2022-12-07T01:26:13;19.13;;;10.07;;
16579;SDS011;8402;51.466;6.806;2022-12-07T01:28:43;16.27;;;9.10;;
16579;SDS011;8402;51.466;6.806;2022-12-07T01:31:13;18.20;;;9.97;;
16579;SDS011;8402;51.466;6.806;2022-12-07T01:33:43;17.47;;;9.53;;
16579;SDS011;8402;51.466;6.806;2022-12-07T01:36:13;18.37;;;10.07;;
16579;SDS011;8402;51.466;6.806;2022-12-07T01:38:43;21.40;;;10.90;;
16579;SDS011;8402;51.466;6.806;2022-12-07T01:41:11;20.17;;;10.17;;
16579;SDS011;8402;51.466;6.806;2022-12-07T01:44:06;15.67;;;9.73;;
16579;SDS011;8402;51.466;6.806;2022-12-07T01:46:39;17.07;;;9.70;;
16579;SDS011;8402;51.466;6.806;2022-12-07T01:49:09;21.43;;;10.33;;
16579;SDS011;8402;51.466;6.806;2022-12-07T01:51:40;21.60;;;10.53;;
16579;SDS011;8402;51.466;6.806;2022-12-07T01:54:11;17.70;;;10.23;;
16579;SDS011;8402;51.466;6.806;2022-12-07T01:56:40;16.80;;;10.03;;
16579;SDS011;8402;51.466;6.806;2022-12-07T01:59:10;20.07;;;10.40;;
16579;SDS011;8402;51.466;6.806;2022-12-07T02:01:37;19.50;;;9.87;;
16579;SDS011;8402;51.466;6.806;2022-12-07T02:04:07;20.33;;;11.77;;
16579;SDS011;8402;51.466;6.806;2022-12-07T02:06:36;16.73;;;9.67;;
16579;SDS011;8402;51.466;6.806;2022-12-07T02:09:04;18.63;;;9.27;;
16579;SDS011;8402;51.466;6.806;2022-12-07T02:11:32;15.77;;;8.80;;
16579;SDS011;8402;51.466;6.806;2022-12-07T02:14:01;23.13;;;10.80;;
16579;SDS011;8402;51.466;6.806;2022-12-07T02:16:31;19.03;;;9.80;;
16579;SDS011;8402;51.466;6.806;2022-12-07T02:19:14;18.93;;;9.80;;
16579;SDS011;8402;51.466;6.806;2022-12-07T02:22:14;20.53;;;9.90;;
16579;SDS011;8402;51.466;6.806;2022-12-07T02:24:57;16.70;;;9.87;;
16579;SDS011;8402;51.466;6.806;2022-12-07T02:27:39;16.87;;;9.90;;
16579;SDS011;8402;51.466;6.806;2022-12-07T02:30:15;14.27;;;8.13;;
16579;SDS011;8402;51.466;6.806;2022-12-07T02:32:48;22.67;;;9.67;;
16579;SDS011;8402;51.466;6.806;2022-12-07T02:35:21;17.00;;;9.50;;
16579;SDS011;8402;51.466;6.806;2022-12-07T02:37:58;18.60;;;9.43;;
16579;SDS011;8402;51.466;6.806;2022-12-07T02:40:37;22.33;;;10.07;;
16579;SDS011;8402;51.466;6.806;2022-12-07T02:43:09;20.07;;;10.07;;
16579;SDS011;8402;51.466;6.806;2022-12-07T02:45:43;19.17;;;9.87;;
16579;SDS011;8402;51.466;6.806;2022-12-07T02:48:13;18.87;;;10.03;;
16579;SDS011;8402;51.466;6.806;2022-12-07T02:50:44;17.73;;;9.73;;
16579;SDS011;8402;51.466;6.806;2022-12-07T02:53:29;17.83;;;9.93;;
16579;SDS011;8402;51.466;6.806;2022-12-07T02:56:02;18.73;;;9.67;;
16579;SDS011;8402;51.466;6.806;2022-12-07T02:58:41;23.80;;;10.80;;
16579;SDS011;8402;51.466;6.806;2022-12-07T03:01:23;20.03;;;10.00;;
16579;SDS011;8402;51.466;6.806;2022-12-07T03:04:02;20.60;;;9.97;;
16579;SDS011;8402;51.466;6.806;2022-12-07T03:06:46;20.93;;;9.23;;
16579;SDS011;8402;51.466;6.806;2022-12-07T03:09:20;19.80;;;9.17;;
16579;SDS011;8402;51.466;6.806;2022-12-07T03:11:55;19.87;;;9.90;;
16579;SDS011;8402;51.466;6.806;2022-12-07T03:14:29;19.77;;;9.80;;
16579;SDS011;8402;51.466;6.806;2022-12-07T03:17:02;19.33;;;10.23;;
16579;SDS011;8402;51.466;6.806;2022-12-07T03:19:36;20.07;;;10.27;;
16579;SDS011;8402;51.466;6.806;2022-12-07T03:22:05;19.33;;;10.50;;
16579;SDS011;8402;51.466;6.806;2022-12-07T03:24:36;22.23;;;9.50;;
16579;SDS011;8402;51.466;6.806;2022-12-07T03:27:11;20.33;;;9.87;;
16579;SDS011;8402;51.466;6.806;2022-12-07T03:29:44;19.20;;;9.83;;
16579;SDS011;8402;51.466;6.806;2022-12-07T03:32:19;17.90;;;9.07;;
16579;SDS011;8402;51.466;6.806;2022-12-07T03:34:53;19.70;;;9.47;;
16579;SDS011;8402;51.466;6.806;2022-12-07T03:37:26;23.93;;;9.20;;
16579;SDS011;8402;51.466;6.806;2022-12-07T03:40:02;20.13;;;8.83;;
16579;SDS011;8402;51.466;6.806;2022-12-07T03:42:34;18.93;;;8.80;;
16579;SDS011;8402;51.466;6.806;2022-12-07T03:45:03;18.53;;;9.30;;
16579;SDS011;8402;51.466;6.806;2022-12-07T03:47:34;17.17;;;9.50;;
16579;SDS011;8402;51.466;6.806;2022-12-07T03:50:11;21.33;;;10.20;;
16579;SDS011;8402;51.466;6.806;2022-12-07T03:52:44;21.63;;;8.87;;
16579;SDS011;8402;51.466;6.806;2022-12-07T03:55:21;20.60;;;8.70;;
16579;SDS011;8402;51.466;6.806;2022-12-07T03:57:55;18.60;;;9.17;;
16579;SDS011;8402;51.466;6.806;2022-12-07T04:00:26;21.47;;;9.70;;
16579;SDS011;8402;51.466;6.806;2022-12-07T04:02:55;17.90;;;9.27;;
16579;SDS011;8402;51.466;6.806;2022-12-07T04:05:23;18.37;;;9.20;;
16579;SDS011;8402;51.466;6.806;2022-12-07T04:07:52;17.47;;;9.00;;
16579;SDS011;8402;51.466;6.806;2022-12-07T04:10:20;19.33;;;9.53;;
16579;SDS011;8402;51.466;6.806;2022-12-07T04:12:48;19.37;;;9.43;;
16579;SDS011;8402;51.466;6.806;2022-12-07T04:15:16;18.60;;;9.37;;
16579;SDS011;8402;51.466;6.806;2022-12-07T04:17:44;21.13;;;9.57;;
16579;SDS011;8402;51.466;6.806;2022-12-07T04:20:14;17.63;;;9.37;;
16579;SDS011;8402;51.466;6.806;2022-12-07T04:22:42;17.73;;;8.53;;
16579;SDS011;8402;51.466;6.806;2022-12-07T04:25:10;20.17;;;9.83;;
16579;SDS011;8402;51.466;6.806;2022-12-07T04:27:38;22.00;;;9.97;;
16579;SDS011;8402;51.466;6.806;2022-12-07T04:30:06;18.67;;;9.63;;
16579;SDS011;8402;51.466;6.806;2022-12-07T04:32:35;23.63;;;9.80;;
16579;SDS011;8402;51.466;6.806;2022-12-07T04:35:04;20.37;;;10.00;;
16579;SDS011;8402;51.466;6.806;2022-12-07T04:37:35;20.73;;;9.57;;
16579;SDS011;8402;51.466;6.806;2022-12-07T04:40:06;17.83;;;9.43;;
16579;SDS011;8402;51.466;6.806;2022-12-07T04:42:37;20.10;;;9.17;;
16579;SDS011;8402;51.466;6.806;2022-12-07T04:45:05;18.83;;;9.73;;
16579;SDS011;8402;51.466;6.806;2022-12-07T04:47:34;23.10;;;10.00;;
16579;SDS011;8402;51.466;6.806;2022-12-07T04:50:02;16.37;;;8.70;;
16579;SDS011;8402;51.466;6.806;2022-12-07T04:52:31;22.10;;;9.83;;
16579;SDS011;8402;51.466;6.806;2022-12-07T04:55:00;19.37;;;9.53;;
16579;SDS011;8402;51.466;6.806;2022-12-07T04:57:28;20.37;;;9.73;;
16579;SDS011;8402;51.466;6.806;2022-12-07T04:59:55;19.57;;;9.43;;
16579;SDS011;8402;51.466;6.806;2022-12-07T05:02:23;17.53;;;9.53;;
16579;SDS011;8402;51.466;6.806;2022-12-07T05:04:52;17.30;;;9.27;;
16579;SDS011;8402;51.466;6.806;2022-12-07T05:07:22;17.70;;;8.70;;
16579;SDS011;8402;51.466;6.806;2022-12-07T05:09:50;17.83;;;8.97;;
16579;SDS011;8402;51.466;6.806;2022-12-07T05:12:19;16.97;;;8.70;;
16579;SDS011;8402;51.466;6.806;2022-12-07T05:14:47;18.00;;;9.30;;
16579;SDS011;8402;51.466;6.806;2022-12-07T05:17:14;20.47;;;9.43;;
16579;SDS011;8402;51.466;6.806;2022-12-07T05:19:43;21.77;;;9.37;;
16579;SDS011;8402;51.466;6.806;2022-12-07T05:22:10;15.93;;;8.73;;
16579;SDS011;8402;51.466;6.806;2022-12-07T05:24:39;16.37;;;7.87;;
16579;SDS011;8402;51.466;6.806;2022-12-07T05:27:07;19.50;;;9.13;;
16579;SDS011;8402;51.466;6.806;2022-12-07T05:29:36;17.77;;;8.50;;
16579;SDS011;8402;51.466;6.806;2022-12-07T05:32:04;19.70;;;8.60;;
16579;SDS011;8402;51.466;6.806;2022-12-07T05:34:32;21.23;;;8.63;;
16579;SDS011;8402;51.466;6.806;2022-12-07T05:37:00;18.10;;;8.33;;
16579;SDS011;8402;51.466;6.806;2022-12-07T05:39:28;19.07;;;8.33;;
16579;SDS011;8402;51.466;6.806;2022-12-07T05:41:56;17.83;;;7.97;;
16579;SDS011;8402;51.466;6.806;2022-12-07T05:44:42;19.40;;;7.37;;
16579;SDS011;8402;51.466;6.806;2022-12-07T05:47:12;17.80;;;8.40;;
16579;SDS011;8402;51.466;6.806;2022-12-07T05:49:41;20.17;;;8.27;;
16579;SDS011;8402;51.466;6.806;2022-12-07T05:52:09;17.17;;;7.43;;
16579;SDS011;8402;51.466;6.806;2022-12-07T05:54:36;20.23;;;7.50;;
16579;SDS011;8402;51.466;6.806;2022-12-07T05:57:04;19.80;;;7.67;;
16579;SDS011;8402;51.466;6.806;2022-12-07T05:59:32;15.10;;;7.67;;
16579;SDS011;8402;51.466;6.806;2022-12-07T06:02:02;20.30;;;7.63;;
16579;SDS011;8402;51.466;6.806;2022-12-07T06:04:33;24.47;;;7.60;;
16579;SDS011;8402;51.466;6.806;2022-12-07T06:07:02;17.10;;;8.10;;
16579;SDS011;8402;51.466;6.806;2022-12-07T06:09:31;16.00;;;7.20;;
16579;SDS011;8402;51.466;6.806;2022-12-07T06:12:00;18.63;;;7.53;;
16579;SDS011;8402;51.466;6.806;2022-12-07T06:14:46;14.37;;;7.13;;
16579;SDS011;8402;51.466;6.806;2022-12-07T06:17:15;13.47;;;6.83;;
16579;SDS011;8402;51.466;6.806;2022-12-07T06:19:43;19.43;;;7.80;;
16579;SDS011;8402;51.466;6.806;2022-12-07T06:22:11;16.70;;;7.40;;
16579;SDS011;8402;51.466;6.806;2022-12-07T06:24:39;14.03;;;7.50;;
16579;SDS011;8402;51.466;6.806;2022-12-07T06:27:07;15.83;;;7.10;;
16579;SDS011;8402;51.466;6.806;2022-12-07T06:29:35;16.03;;;6.70;;
16579;SDS011;8402;51.466;6.806;2022-12-07T06:32:04;17.67;;;7.23;;
16579;SDS011;8402;51.466;6.806;2022-12-07T06:34:33;12.47;;;6.53;;
16579;SDS011;8402;51.466;6.806;2022-12-07T06:37:02;16.50;;;6.93;;
16579;SDS011;8402;51.466;6.806;2022-12-07T06:39:30;16.37;;;6.90;;
16579;SDS011;8402;51.466;6.806;2022-12-07T06:41:58;12.97;;;7.17;;
16579;SDS011;8402;51.466;6.806;2022-12-07T06:44:26;18.30;;;6.83;;
16579;SDS011;8402;51.466;6.806;2022-12-07T06:46:54;24.20;;;8.40;;
16579;SDS011;8402;51.466;6.806;2022-12-07T06:49:43;21.97;;;7.60;;
16579;SDS011;8402;51.466;6.806;2022-12-07T06:52:11;15.63;;;7.03;;
16579;SDS011;8402;51.466;6.806;2022-12-07T06:54:39;18.20;;;7.10;;
16579;SDS011;8402;51.466;6.806;2022-12-07T06:57:07;14.00;;;7.07;;
16579;SDS011;8402;51.466;6.806;2022-12-07T06:59:35;14.23;;;6.67;;
16579;SDS011;8402;51.466;6.806;2022-12-07T07:02:03;18.20;;;7.53;;
16579;SDS011;8402;51.466;6.806;2022-12-07T07:04:31;13.80;;;6.87;;
16579;SDS011;8402;51.466;6.806;2022-12-07T07:07:00;17.33;;;7.17;;
16579;SDS011;8402;51.466;6.806;2022-12-07T07:09:28;18.90;;;7.43;;
16579;SDS011;8402;51.466;6.806;2022-12-07T07:11:56;15.30;;;7.40;;
16579;SDS011;8402;51.466;6.806;2022-12-07T07:14:24;13.23;;;6.83;;
16579;SDS011;8402;51.466;6.806;2022-12-07T07:16:52;15.03;;;7.20;;
16579;SDS011;8402;51.466;6.806;2022-12-07T07:19:20;14.27;;;6.90;;
16579;SDS011;8402;51.466;6.806;2022-12-07T07:21:48;19.17;;;7.10;;
16579;SDS011;8402;51.466;6.806;2022-12-07T07:24:17;16.87;;;7.03;;
16579;SDS011;8402;51.466;6.806;2022-12-07T07:26:45;19.00;;;6.83;;
16579;SDS011;8402;51.466;6.806;2022-12-07T07:29:13;17.40;;;6.63;;
16579;SDS011;8402;51.466;6.806;2022-12-07T07:31:41;19.07;;;7.00;;
16579;SDS011;8402;51.466;6.806;2022-12-07T07:34:09;21.30;;;7.83;;
16579;SDS011;8402;51.466;6.806;2022-12-07T07:36:37;18.63;;;7.83;;
16579;SDS011;8402;51.466;6.806;2022-12-07T07:39:05;20.67;;;6.83;;
16579;SDS011;8402;51.466;6.806;2022-12-07T07:41:34;17.43;;;6.90;;
16579;SDS011;8402;51.466;6.806;2022-12-07T07:44:03;12.73;;;7.17;;
16579;SDS011;8402;51.466;6.806;2022-12-07T07:46:31;18.40;;;7.03;;
16579;SDS011;8402;51.466;6.806;2022-12-07T07:48:59;17.80;;;6.47;;
16579;SDS011;8402;51.466;6.806;2022-12-07T07:51:27;16.57;;;6.43;;
16579;SDS011;8402;51.466;6.806;2022-12-07T07:53:55;14.47;;;6.70;;
16579;SDS011;8402;51.466;6.806;2022-12-07T07:56:23;15.37;;;6.53;;
16579;SDS011;8402;51.466;6.806;2022-12-07T07:58:53;18.37;;;6.60;;
16579;SDS011;8402;51.466;6.806;2022-12-07T08:01:21;21.47;;;7.23;;
16579;SDS011;8402;51.466;6.806;2022-12-07T08:03:49;17.77;;;7.37;;
16579;SDS011;8402;51.466;6.806;2022-12-07T08:06:17;21.80;;;7.23;;
16579;SDS011;8402;51.466;6.806;2022-12-07T08:08:45;13.27;;;6.70;;
16579;SDS011;8402;51.466;6.806;2022-12-07T08:11:13;19.17;;;7.27;;
16579;SDS011;8402;51.466;6.806;2022-12-07T08:13:41;15.03;;;6.83;;
16579;SDS011;8402;51.466;6.806;2022-12-07T08:16:10;17.60;;;7.47;;
16579;SDS011;8402;51.466;6.806;2022-12-07T08:18:39;16.97;;;7.67;;
16579;SDS011;8402;51.466;6.806;2022-12-07T08:21:09;20.23;;;8.80;;
16579;SDS011;8402;51.466;6.806;2022-12-07T08:23:40;25.00;;;8.30;;
16579;SDS011;8402;51.466;6.806;2022-12-07T08:26:10;23.73;;;8.23;;
16579;SDS011;8402;51.466;6.806;2022-12-07T08:28:39;23.27;;;8.70;;
16579;SDS011;8402;51.466;6.806;2022-12-07T08:31:10;25.70;;;8.27;;
16579;SDS011;8402;51.466;6.806;2022-12-07T08:33:41;22.17;;;8.40;;
16579;SDS011;8402;51.466;6.806;2022-12-07T08:36:13;23.93;;;8.17;;
16579;SDS011;8402;51.466;6.806;2022-12-07T08:38:41;23.30;;;8.70;;
16579;SDS011;8402;51.466;6.806;2022-12-07T08:41:29;25.37;;;9.33;;
16579;SDS011;8402;51.466;6.806;2022-12-07T08:43:57;23.20;;;9.00;;
16579;SDS011;8402;51.466;6.806;2022-12-07T08:46:27;12.53;;;7.17;;
16579;SDS011;8402;51.466;6.806;2022-12-07T08:49:03;24.20;;;7.67;;
16579;SDS011;8402;51.466;6.806;2022-12-07T08:51:33;15.43;;;7.07;;
16579;SDS011;8402;51.466;6.806;2022-12-07T08:54:02;21.40;;;8.07;;
16579;SDS011;8402;51.466;6.806;2022-12-07T08:56:34;18.70;;;7.60;;
16579;SDS011;8402;51.466;6.806;2022-12-07T08:59:03;13.80;;;6.47;;
16579;SDS011;8402;51.466;6.806;2022-12-07T09:01:34;15.80;;;6.97;;
16579;SDS011;8402;51.466;6.806;2022-12-07T09:04:02;16.57;;;6.90;;
16579;SDS011;8402;51.466;6.806;2022-12-07T09:06:30;16.83;;;6.80;;
16579;SDS011;8402;51.466;6.806;2022-12-07T09:08:58;17.97;;;6.80;;
16579;SDS011;8402;51.466;6.806;2022-12-07T09:11:27;12.53;;;6.20;;
16579;SDS011;8402;51.466;6.806;2022-12-07T09:13:55;16.53;;;6.83;;
16579;SDS011;8402;51.466;6.806;2022-12-07T09:16:23;16.10;;;6.43;;
16579;SDS011;8402;51.466;6.806;2022-12-07T09:18:53;11.63;;;5.70;;
16579;SDS011;8402;51.466;6.806;2022-12-07T09:21:21;13.50;;;6.37;;
16579;SDS011;8402;51.466;6.806;2022-12-07T09:23:49;15.17;;;5.80;;
16579;SDS011;8402;51.466;6.806;2022-12-07T09:26:17;14.73;;;6.33;;
16579;SDS011;8402;51.466;6.806;2022-12-07T09:28:44;12.80;;;5.83;;
16579;SDS011;8402;51.466;6.806;2022-12-07T09:31:12;15.80;;;5.37;;
16579;SDS011;8402;51.466;6.806;2022-12-07T09:33:54;10.80;;;5.63;;
16579;SDS011;8402;51.466;6.806;2022-12-07T09:36:23;11.97;;;5.47;;
16579;SDS011;8402;51.466;6.806;2022-12-07T09:38:51;15.70;;;5.37;;
16579;SDS011;8402;51.466;6.806;2022-12-07T09:41:19;18.90;;;5.70;;
16579;SDS011;8402;51.466;6.806;2022-12-07T09:43:50;10.80;;;5.23;;
16579;SDS011;8402;51.466;6.806;2022-12-07T09:46:19;16.90;;;4.97;;
16579;SDS011;8402;51.466;6.806;2022-12-07T09:48:48;19.77;;;5.07;;
16579;SDS011;8402;51.466;6.806;2022-12-07T09:51:19;12.80;;;5.33;;
16579;SDS011;8402;51.466;6.806;2022-12-07T09:53:51;10.00;;;4.87;;
16579;SDS011;8402;51.466;6.806;2022-12-07T09:56:21;13.60;;;5.00;;
16579;SDS011;8402;51.466;6.806;2022-12-07T09:58:50;12.93;;;4.67;;
16579;SDS011;8402;51.466;6.806;2022-12-07T10:01:22;13.30;;;4.90;;
16579;SDS011;8402;51.466;6.806;2022-12-07T10:03:52;11.87;;;4.83;;
16579;SDS011;8402;51.466;6.806;2022-12-07T10:06:23;15.30;;;6.30;;
16579;SDS011;8402;51.466;6.806;2022-12-07T10:08:51;15.57;;;5.63;;
16579;SDS011;8402;51.466;6.806;2022-12-07T10:11:19;9.07;;;3.77;;
16579;SDS011;8402;51.466;6.806;2022-12-07T10:13:48;14.03;;;5.47;;
16579;SDS011;8402;51.466;6.806;2022-12-07T10:16:35;16.33;;;5.27;;
16579;SDS011;8402;51.466;6.806;2022-12-07T10:19:19;11.33;;;5.03;;
16579;SDS011;8402;51.466;6.806;2022-12-07T10:22:07;14.27;;;4.30;;
16579;SDS011;8402;51.466;6.806;2022-12-07T10:24:38;11.93;;;4.23;;
16579;SDS011;8402;51.466;6.806;2022-12-07T10:27:17;10.20;;;3.67;;
16579;SDS011;8402;51.466;6.806;2022-12-07T10:29:47;11.77;;;3.73;;
16579;SDS011;8402;51.466;6.806;2022-12-07T10:32:28;13.43;;;4.33;;
16579;SDS011;8402;51.466;6.806;2022-12-07T10:35:20;7.77;;;3.93;;
16579;SDS011;8402;51.466;6.806;2022-12-07T10:37:52;8.83;;;3.70;;
16579;SDS011;8402;51.466;6.806;2022-12-07T10:40:29;12.60;;;3.90;;
16579;SDS011;8402;51.466;6.806;2022-12-07T10:43:08;9.77;;;3.67;;
16579;SDS011;8402;51.466;6.806;2022-12-07T10:48:52;11.33;;;3.73;;
16579;SDS011;8402;51.466;6.806;2022-12-07T10:51:32;9.90;;;3.70;;
16579;SDS011;8402;51.466;6.806;2022-12-07T10:54:15;9.97;;;3.70;;
16579;SDS011;8402;51.466;6.806;2022-12-07T10:56:58;9.13;;;3.33;;
16579;SDS011;8402;51.466;6.806;2022-12-07T11:02:46;9.17;;;4.03;;
16579;SDS011;8402;51.466;6.806;2022-12-07T11:05:26;7.27;;;3.37;;
16579;SDS011;8402;51.466;6.806;2022-12-07T11:07:59;12.73;;;4.03;;
16579;SDS011;8402;51.466;6.806;2022-12-07T11:10:37;9.57;;;3.30;;
16579;SDS011;8402;51.466;6.806;2022-12-07T11:13:19;9.27;;;3.63;;
16579;SDS011;8402;51.466;6.806;2022-12-07T11:15:57;7.47;;;3.60;;
16579;SDS011;8402;51.466;6.806;2022-12-07T11:18:47;10.13;;;3.90;;
16579;SDS011;8402;51.466;6.806;2022-12-07T11:21:26;5.97;;;3.10;;
16579;SDS011;8402;51.466;6.806;2022-12-07T11:24:05;15.77;;;3.70;;
16579;SDS011;8402;51.466;6.806;2022-12-07T11:26:50;14.47;;;4.43;;
16579;SDS011;8402;51.466;6.806;2022-12-07T11:32:50;8.07;;;3.10;;
16579;SDS011;8402;51.466;6.806;2022-12-07T11:35:30;7.70;;;2.67;;
16579;SDS011;8402;51.466;6.806;2022-12-07T11:38:09;12.93;;;3.50;;
16579;SDS011;8402;51.466;6.806;2022-12-07T11:40:39;7.03;;;3.27;;
16579;SDS011;8402;51.466;6.806;2022-12-07T11:43:13;11.50;;;3.50;;
16579;SDS011;8402;51.466;6.806;2022-12-07T11:45:49;7.67;;;3.30;;
16579;SDS011;8402;51.466;6.806;2022-12-07T11:48:22;9.87;;;3.37;;
16579;SDS011;8402;51.466;6.806;2022-12-07T11:50:56;7.43;;;3.37;;
16579;SDS011;8402;51.466;6.806;2022-12-07T11:53:27;10.40;;;3.50;;
16579;SDS011;8402;51.466;6.806;2022-12-07T11:56:02;7.67;;;3.10;;
16579;SDS011;8402;51.466;6.806;2022-12-07T11:58:40;10.70;;;3.17;;
16579;SDS011;8402;51.466;6.806;2022-12-07T12:01:18;7.40;;;3.40;;
16579;SDS011;8402;51.466;6.806;2022-12-07T12:04:13;10.50;;;3.37;;
16579;SDS011;8402;51.466;6.806;2022-12-07T12:06:49;8.53;;;3.53;;
16579;SDS011;8402;51.466;6.806;2022-12-07T12:09:19;14.10;;;3.70;;
16579;SDS011;8402;51.466;6.806;2022-12-07T12:12:21;13.03;;;3.97;;
16579;SDS011;8402;51.466;6.806;2022-12-07T12:15:32;7.43;;;3.60;;
16579;SDS011;8402;51.466;6.806;2022-12-07T12:21:14;17.17;;;3.77;;
16579;SDS011;8402;51.466;6.806;2022-12-07T12:23:45;14.60;;;4.20;;
16579;SDS011;8402;51.466;6.806;2022-12-07T12:26:18;8.90;;;3.80;;
16579;SDS011;8402;51.466;6.806;2022-12-07T12:28:50;9.23;;;3.73;;
16579;SDS011;8402;51.466;6.806;2022-12-07T12:31:33;11.83;;;4.97;;
16579;SDS011;8402;51.466;6.806;2022-12-07T12:34:04;14.60;;;5.00;;
16579;SDS011;8402;51.466;6.806;2022-12-07T12:36:47;9.17;;;3.63;;
16579;SDS011;8402;51.466;6.806;2022-12-07T12:39:16;16.50;;;6.67;;
16579;SDS011;8402;51.466;6.806;2022-12-07T12:41:52;11.53;;;4.23;;
16579;SDS011;8402;51.466;6.806;2022-12-07T12:54:02;9.93;;;3.50;;
16579;SDS011;8402;51.466;6.806;2022-12-07T12:56:35;7.97;;;2.80;;
16579;SDS011;8402;51.466;6.806;2022-12-07T13:02:09;11.57;;;3.43;;
16579;SDS011;8402;51.466;6.806;2022-12-07T13:04:52;7.27;;;3.30;;
16579;SDS011;8402;51.466;6.806;2022-12-07T13:13:28;7.10;;;2.73;;
16579;SDS011;8402;51.466;6.806;2022-12-07T13:22:50;7.03;;;3.27;;
16579;SDS011;8402;51.466;6.806;2022-12-07T13:25:26;9.83;;;3.73;;
16579;SDS011;8402;51.466;6.806;2022-12-07T13:27:59;11.17;;;3.53;;
16579;SDS011;8402;51.466;6.806;2022-12-07T13:30:29;7.57;;;3.33;;
16579;SDS011;8402;51.466;6.806;2022-12-07T13:32:59;11.27;;;3.07;;
16579;SDS011;8402;51.466;6.806;2022-12-07T13:35:28;6.20;;;2.90;;
16579;SDS011;8402;51.466;6.806;2022-12-07T13:38:00;9.37;;;3.30;;
16579;SDS011;8402;51.466;6.806;2022-12-07T13:40:31;7.27;;;2.90;;
16579;SDS011;8402;51.466;6.806;2022-12-07T13:42:59;6.00;;;3.17;;
16579;SDS011;8402;51.466;6.806;2022-12-07T13:45:29;9.23;;;2.80;;
16579;SDS011;8402;51.466;6.806;2022-12-07T13:48:19;9.33;;;2.80;;
16579;SDS011;8402;51.466;6.806;2022-12-07T13:50:53;10.93;;;3.40;;
16579;SDS011;8402;51.466;6.806;2022-12-07T13:53:24;12.13;;;3.17;;
16579;SDS011;8402;51.466;6.806;2022-12-07T13:55:54;7.73;;;2.47;;
16579;SDS011;8402;51.466;6.806;2022-12-07T13:58:22;6.10;;;2.37;;
16579;SDS011;8402;51.466;6.806;2022-12-07T14:00:51;10.47;;;2.37;;
16579;SDS011;8402;51.466;6.806;2022-12-07T14:03:30;9.60;;;3.07;;
16579;SDS011;8402;51.466;6.806;2022-12-07T14:06:03;6.13;;;2.80;;
16579;SDS011;8402;51.466;6.806;2022-12-07T14:08:36;11.90;;;3.10;;
16579;SDS011;8402;51.466;6.806;2022-12-07T14:11:04;6.70;;;2.80;;
16579;SDS011;8402;51.466;6.806;2022-12-07T14:13:33;7.77;;;2.53;;
16579;SDS011;8402;51.466;6.806;2022-12-07T14:16:03;7.77;;;2.80;;
16579;SDS011;8402;51.466;6.806;2022-12-07T14:18:45;4.93;;;2.47;;
16579;SDS011;8402;51.466;6.806;2022-12-07T14:21:15;9.00;;;2.77;;
16579;SDS011;8402;51.466;6.806;2022-12-07T14:23:45;9.40;;;2.60;;
16579;SDS011;8402;51.466;6.806;2022-12-07T14:26:35;6.97;;;2.30;;
16579;SDS011;8402;51.466;6.806;2022-12-07T14:29:19;7.87;;;2.63;;
16579;SDS011;8402;51.466;6.806;2022-12-07T14:31:57;7.47;;;2.03;;
16579;SDS011;8402;51.466;6.806;2022-12-07T14:34:26;8.33;;;2.43;;
16579;SDS011;8402;51.466;6.806;2022-12-07T14:36:53;8.10;;;2.50;;
16579;SDS011;8402;51.466;6.806;2022-12-07T14:39:23;11.60;;;3.13;;
16579;SDS011;8402;51.466;6.806;2022-12-07T14:41:51;7.07;;;2.57;;
16579;SDS011;8402;51.466;6.806;2022-12-07T14:44:20;16.13;;;2.87;;
16579;SDS011;8402;51.466;6.806;2022-12-07T14:46:54;7.43;;;2.40;;
16579;SDS011;8402;51.466;6.806;2022-12-07T14:49:42;13.60;;;3.07;;
16579;SDS011;8402;51.466;6.806;2022-12-07T14:52:13;8.70;;;3.20;;
16579;SDS011;8402;51.466;6.806;2022-12-07T14:55:07;7.90;;;2.30;;
16579;SDS011;8402;51.466;6.806;2022-12-07T14:57:40;6.03;;;1.93;;
16579;SDS011;8402;51.466;6.806;2022-12-07T15:00:10;8.90;;;1.97;;
16579;SDS011;8402;51.466;6.806;2022-12-07T15:02:42;10.80;;;2.70;;
16579;SDS011;8402;51.466;6.806;2022-12-07T15:05:10;7.87;;;2.87;;
16579;SDS011;8402;51.466;6.806;2022-12-07T15:07:42;6.07;;;2.83;;
16579;SDS011;8402;51.466;6.806;2022-12-07T15:10:14;6.70;;;2.13;;
16579;SDS011;8402;51.466;6.806;2022-12-07T15:12:49;4.80;;;2.00;;
16579;SDS011;8402;51.466;6.806;2022-12-07T15:15:17;8.40;;;2.33;;
16579;SDS011;8402;51.466;6.806;2022-12-07T15:17:45;5.87;;;2.50;;
16579;SDS011;8402;51.466;6.806;2022-12-07T15:20:14;7.87;;;2.70;;
16579;SDS011;8402;51.466;6.806;2022-12-07T15:22:43;6.50;;;2.70;;
16579;SDS011;8402;51.466;6.806;2022-12-07T15:25:13;6.53;;;2.57;;
16579;SDS011;8402;51.466;6.806;2022-12-07T15:27:42;9.47;;;2.43;;
16579;SDS011;8402;51.466;6.806;2022-12-07T15:30:10;4.23;;;2.50;;
16579;SDS011;8402;51.466;6.806;2022-12-07T15:32:38;11.73;;;3.20;;
16579;SDS011;8402;51.466;6.806;2022-12-07T15:35:07;8.07;;;3.47;;
16579;SDS011;8402;51.466;6.806;2022-12-07T15:37:35;6.30;;;3.10;;
16579;SDS011;8402;51.466;6.806;2022-12-07T15:40:04;9.37;;;3.23;;
16579;SDS011;8402;51.466;6.806;2022-12-07T15:42:35;11.77;;;3.40;;
16579;SDS011;8402;51.466;6.806;2022-12-07T15:45:03;12.07;;;3.20;;
16579;SDS011;8402;51.466;6.806;2022-12-07T15:47:33;9.87;;;3.40;;
16579;SDS011;8402;51.466;6.806;2022-12-07T15:50:23;10.03;;;2.97;;
16579;SDS011;8402;51.466;6.806;2022-12-07T15:52:51;6.83;;;2.87;;
16579;SDS011;8402;51.466;6.806;2022-12-07T15:55:19;9.57;;;3.23;;
16579;SDS011;8402;51.466;6.806;2022-12-07T15:57:48;6.83;;;3.20;;